Time;durP1;ratioP1;P1;durP2;ratioP2;P2;SDS_P1;SDS_P2;PMS_P1;PMS_P2;Temp;Humidity;BMP_temperature;BMP_pressure;BME280_temperature;BME280_humidity;BME280_pressure;Samples;Min_cycle;Max_cycle;Signal;HPM_P1;HPM_P2
2021/08/30 00:01:48;;;;;;;15.50;5.95;;;20.40;90.50;;;;;;4998708;28;20451;-71
2021/08/30 00:04:14;;;;;;;13.48;6.63;;;20.30;90.50;;;;;;5005061;28;20030;-71
2021/08/30 00:06:41;;;;;;;24.85;7.68;;;20.30;90.50;;;;;;5006099;28;20046;-71
2021/08/30 00:09:08;;;;;;;20.02;7.30;;;20.30;90.50;;;;;;5010592;28;20033;-71
2021/08/30 00:11:34;;;;;;;22.95;7.35;;;20.40;90.50;;;;;;5011160;28;20135;-71
2021/08/30 00:13:59;;;;;;;23.88;7.05;;;20.40;90.50;;;;;;5010578;28;20047;-71
2021/08/30 00:16:25;;;;;;;20.58;6.90;;;20.40;90.60;;;;;;5003471;28;20481;-71
2021/08/30 00:18:50;;;;;;;22.83;7.50;;;20.30;90.60;;;;;;5005355;28;20473;-71
2021/08/30 00:21:16;;;;;;;19.38;7.38;;;20.40;90.70;;;;;;4999683;28;20034;-71
2021/08/30 00:23:43;;;;;;;21.08;8.30;;;20.30;90.70;;;;;;5000580;28;20022;-71
2021/08/30 00:26:09;;;;;;;19.90;7.55;;;20.30;90.80;;;;;;4959480;28;1047049;-71
2021/08/30 00:28:35;;;;;;;20.70;7.65;;;20.40;90.90;;;;;;5006007;28;20110;-71
2021/08/30 00:31:00;;;;;;;19.55;8.23;;;20.40;90.90;;;;;;5004642;28;20073;-71
2021/08/30 00:33:26;;;;;;;17.20;7.72;;;20.40;90.90;;;;;;5011684;28;20104;-71
2021/08/30 00:35:52;;;;;;;34.28;8.25;;;20.40;90.90;;;;;;5005473;28;20030;-72
2021/08/30 00:38:17;;;;;;;21.92;7.53;;;20.40;90.90;;;;;;5010137;28;20034;-71
2021/08/30 00:40:43;;;;;;;23.75;9.15;;;20.30;90.90;;;;;;5010444;28;20045;-71
2021/08/30 00:43:09;;;;;;;20.95;8.18;;;20.40;91.20;;;;;;5009950;28;20045;-71
2021/08/30 00:45:35;;;;;;;21.95;8.10;;;20.30;90.90;;;;;;5010437;28;20057;-71
2021/08/30 00:48:01;;;;;;;25.80;8.85;;;20.40;91.00;;;;;;5010330;28;20474;-71
2021/08/30 00:50:28;;;;;;;21.52;8.60;;;20.30;91.00;;;;;;5011503;28;20041;-71
2021/08/30 00:52:53;;;;;;;21.42;8.82;;;20.30;91.20;;;;;;5011419;28;20037;-71
2021/08/30 00:55:20;;;;;;;20.88;8.32;;;20.40;91.30;;;;;;4993946;28;20096;-71
2021/08/30 00:57:47;;;;;;;23.33;8.98;;;20.30;91.30;;;;;;5003431;28;20131;-71
2021/08/30 01:00:14;;;;;;;21.42;8.75;;;20.40;91.40;;;;;;4996862;28;20119;-72
2021/08/30 01:02:41;;;;;;;21.52;8.80;;;20.30;91.40;;;;;;5013005;28;20101;-71
2021/08/30 01:05:09;;;;;;;32.83;9.43;;;20.30;91.30;;;;;;5010171;28;20037;-72
2021/08/30 01:08:11;;;;;;;22.45;9.35;;;20.30;91.40;;;;;;5003842;28;20047;-71
2021/08/30 01:10:51;;;;;;;24.90;9.32;;;20.30;91.40;;;;;;4997798;28;20030;-71
2021/08/30 01:13:33;;;;;;;22.98;8.80;;;20.30;91.50;;;;;;5011569;28;20034;-71
2021/08/30 01:16:03;;;;;;;32.40;10.45;;;20.30;91.50;;;;;;5010509;28;20432;-71
2021/08/30 01:18:32;;;;;;;27.52;8.90;;;20.30;91.50;;;;;;5000078;28;20034;-71
2021/08/30 01:21:13;;;;;;;29.98;9.77;;;20.30;91.50;;;;;;4995547;28;20026;-72
2021/08/30 01:23:40;;;;;;;24.10;8.93;;;20.30;91.60;;;;;;5005373;28;20500;-72
2021/08/30 01:26:09;;;;;;;31.88;9.07;;;20.30;91.50;;;;;;4998666;28;20473;-71
2021/08/30 01:28:49;;;;;;;23.98;9.57;;;20.30;91.60;;;;;;5010242;28;20037;-71
2021/08/30 01:31:25;;;;;;;26.13;8.93;;;20.30;91.60;;;;;;4999823;28;20109;-71
2021/08/30 01:33:52;;;;;;;31.00;8.80;;;20.30;91.70;;;;;;5004629;28;20084;-71
2021/08/30 01:36:21;;;;;;;23.67;9.25;;;20.30;91.70;;;;;;5006402;28;20390;-71
2021/08/30 01:38:48;;;;;;;20.85;9.50;;;20.30;91.70;;;;;;5003859;28;20034;-71
2021/08/30 01:41:18;;;;;;;30.77;10.23;;;20.30;91.70;;;;;;5009516;28;20030;-71
2021/08/30 01:43:46;;;;;;;26.58;10.32;;;20.30;91.80;;;;;;5001789;28;20039;-71
2021/08/30 01:46:14;;;;;;;26.15;9.27;;;20.30;91.90;;;;;;5007932;28;20441;-71
2021/08/30 01:48:48;;;;;;;24.42;9.20;;;20.30;92.00;;;;;;5016019;28;20022;-71
2021/08/30 01:51:19;;;;;;;26.60;9.75;;;20.30;92.00;;;;;;5012116;28;20500;-71
2021/08/30 01:53:47;;;;;;;31.95;9.45;;;20.30;92.00;;;;;;4998265;28;20084;-71
2021/08/30 01:56:16;;;;;;;23.75;9.07;;;20.30;92.00;;;;;;4998572;28;20072;-71
2021/08/30 02:01:28;;;;;;;27.65;9.40;;;20.20;92.00;;;;;;5012506;28;20034;-72
2021/08/30 02:03:53;;;;;;;21.15;8.90;;;20.30;92.00;;;;;;5006159;28;20045;-71
2021/08/30 02:06:19;;;;;;;27.65;8.82;;;20.30;92.10;;;;;;5008667;28;20041;-71
2021/08/30 02:08:45;;;;;;;33.70;10.00;;;20.30;92.10;;;;;;5012720;28;20498;-71
2021/08/30 02:11:14;;;;;;;25.08;9.00;;;20.30;92.10;;;;;;5009752;28;20034;-71
2021/08/30 02:13:40;;;;;;;30.58;9.27;;;20.30;92.20;;;;;;5011150;28;20045;-71
2021/08/30 02:16:06;;;;;;;22.98;9.35;;;20.30;92.20;;;;;;5009990;28;20021;-71
2021/08/30 02:18:59;;;;;;;27.90;8.45;;;20.30;92.30;;;;;;5010617;28;20480;-71
2021/08/30 02:21:33;;;;;;;;;;;20.30;92.30;;;;;;5004270;28;20038;-71
2021/08/30 02:24:02;;;;;;;;;;;20.30;92.00;;;;;;5002919;28;19916;-71
2021/08/30 02:26:46;;;;;;;27.42;8.68;;;20.30;91.80;;;;;;5002923;28;19953;-71
2021/08/30 02:29:17;;;;;;;22.17;8.77;;;20.30;91.90;;;;;;5011755;28;20153;-71
2021/08/30 02:31:48;;;;;;;21.98;9.35;;;20.30;92.00;;;;;;5003134;28;20041;-71
2021/08/30 02:34:16;;;;;;;24.05;8.45;;;20.30;92.10;;;;;;5011252;28;20025;-71
2021/08/30 02:36:42;;;;;;;26.83;9.02;;;20.30;92.10;;;;;;5012307;28;20034;-71
2021/08/30 02:39:09;;;;;;;25.00;8.35;;;20.30;92.10;;;;;;4998207;28;20462;-71
2021/08/30 02:41:36;;;;;;;22.98;8.98;;;20.20;92.10;;;;;;5003799;28;20112;-71
2021/08/30 02:44:02;;;;;;;23.50;8.63;;;20.30;92.10;;;;;;5007225;28;20080;-71
2021/08/30 02:46:30;;;;;;;30.15;9.43;;;20.30;92.10;;;;;;5013065;28;20038;-71
2021/08/30 02:48:56;;;;;;;15.88;8.48;;;20.30;92.10;;;;;;5010383;28;20425;-71
2021/08/30 02:51:22;;;;;;;21.63;9.70;;;20.30;92.00;;;;;;5009938;28;20052;-71
2021/08/30 02:53:49;;;;;;;20.67;9.43;;;20.30;92.00;;;;;;5012685;28;20053;-71
2021/08/30 02:56:16;;;;;;;20.05;8.90;;;20.30;91.90;;;;;;5009506;28;20695;-71
2021/08/30 02:58:43;;;;;;;24.73;9.32;;;20.40;91.90;;;;;;5016589;28;20034;-71
2021/08/30 03:01:09;;;;;;;26.08;9.35;;;20.30;91.80;;;;;;5001361;28;20436;-71
2021/08/30 03:03:35;;;;;;;21.65;8.93;;;20.30;91.80;;;;;;5012540;28;20034;-71
2021/08/30 03:06:01;;;;;;;22.83;9.07;;;20.40;91.80;;;;;;5012642;28;20033;-71
2021/08/30 03:08:29;;;;;;;21.65;9.43;;;20.40;91.70;;;;;;5012004;28;20362;-71
2021/08/30 03:10:57;;;;;;;20.95;9.15;;;20.40;91.70;;;;;;5010801;28;20026;-71
2021/08/30 03:13:23;;;;;;;23.05;9.10;;;20.40;91.60;;;;;;5007783;28;20068;-71
2021/08/30 03:15:50;;;;;;;19.23;9.15;;;20.40;91.60;;;;;;5007390;28;20025;-71
2021/08/30 03:18:17;;;;;;;24.45;8.50;;;20.40;91.60;;;;;;5007730;28;20488;-71
2021/08/30 03:20:44;;;;;;;22.05;8.98;;;20.40;91.50;;;;;;5013165;28;20028;-71
2021/08/30 03:23:11;;;;;;;25.60;9.75;;;20.40;91.50;;;;;;5005167;28;20018;-71
2021/08/30 03:25:37;;;;;;;25.20;10.25;;;20.40;91.80;;;;;;5008763;28;20057;-71
2021/08/30 03:28:08;;;;;;;22.25;8.70;;;20.40;91.50;;;;;;5003175;28;20123;-71
2021/08/30 03:30:34;;;;;;;22.65;9.05;;;20.40;91.50;;;;;;5006474;28;20030;-71
2021/08/30 03:33:01;;;;;;;16.98;8.73;;;20.40;91.40;;;;;;5011279;28;20041;-71
2021/08/30 03:35:29;;;;;;;19.92;9.52;;;20.40;91.40;;;;;;5007110;28;20038;-71
2021/08/30 03:37:56;;;;;;;18.88;9.32;;;20.40;91.40;;;;;;5007795;28;20026;-71
2021/08/30 03:40:23;;;;;;;24.80;9.95;;;20.40;91.30;;;;;;5001700;28;20054;-71
2021/08/30 03:42:50;;;;;;;19.83;9.60;;;20.40;91.30;;;;;;5001018;28;20109;-71
2021/08/30 03:45:16;;;;;;;20.08;8.88;;;20.40;91.30;;;;;;5012914;28;20084;-71
2021/08/30 03:47:42;;;;;;;22.70;10.02;;;20.40;91.30;;;;;;5012419;28;20056;-71
2021/08/30 03:50:10;;;;;;;19.58;10.10;;;20.30;91.20;;;;;;5012855;28;20473;-71
2021/08/30 03:52:38;;;;;;;21.70;10.07;;;20.40;91.20;;;;;;5013615;28;20030;-71
2021/08/30 03:55:07;;;;;;;27.05;9.27;;;20.40;91.30;;;;;;5000239;28;20030;-71
2021/08/30 03:57:35;;;;;;;19.73;9.40;;;20.40;91.20;;;;;;5012194;28;20065;-71
2021/08/30 04:00:02;;;;;;;24.50;10.60;;;20.40;91.20;;;;;;5011631;28;20036;-71
2021/08/30 04:02:32;;;;;;;20.67;9.65;;;20.30;91.20;;;;;;5012395;28;20030;-71
2021/08/30 04:04:59;;;;;;;20.10;9.48;;;20.30;91.20;;;;;;5010225;28;20034;-71
2021/08/30 04:07:25;;;;;;;20.20;9.40;;;20.30;91.20;;;;;;4999166;28;20073;-71
2021/08/30 04:09:52;;;;;;;20.65;10.18;;;20.30;91.20;;;;;;5009286;28;20466;-71
2021/08/30 04:12:19;;;;;;;21.52;10.20;;;20.30;91.20;;;;;;5006559;28;20038;-71
2021/08/30 04:14:46;;;;;;;19.55;9.82;;;20.30;91.20;;;;;;5007262;28;20038;-71
2021/08/30 04:17:11;;;;;;;15.60;9.27;;;20.30;91.30;;;;;;5003365;28;20484;-73
2021/08/30 04:19:37;;;;;;;18.15;10.10;;;20.30;91.20;;;;;;5003576;28;20113;-72
2021/08/30 04:22:03;;;;;;;22.02;9.48;;;20.30;91.20;;;;;;5004076;28;20105;-72
2021/08/30 04:24:29;;;;;;;19.58;9.35;;;20.20;91.20;;;;;;5010317;28;20041;-72
2021/08/30 04:26:55;;;;;;;17.70;9.35;;;20.20;91.20;;;;;;5011021;28;20046;-72
2021/08/30 04:29:21;;;;;;;23.42;10.10;;;20.30;91.30;;;;;;5003681;28;20042;-73
2021/08/30 04:31:46;;;;;;;19.50;9.90;;;20.20;91.30;;;;;;5009063;28;20096;-72
2021/08/30 04:34:12;;;;;;;18.85;9.10;;;20.20;91.20;;;;;;5003906;28;20065;-72
2021/08/30 04:36:37;;;;;;;19.90;9.57;;;20.20;91.30;;;;;;5009150;28;20029;-72
2021/08/30 04:39:04;;;;;;;23.02;9.57;;;20.20;91.30;;;;;;5004740;28;20036;-72
2021/08/30 04:41:29;;;;;;;17.33;9.52;;;20.30;91.30;;;;;;5004551;28;20425;-79
2021/08/30 04:43:55;;;;;;;23.17;10.18;;;20.20;91.30;;;;;;4999640;28;20070;-73
2021/08/30 04:46:21;;;;;;;18.10;8.82;;;20.20;91.30;;;;;;5007369;28;20077;-71
2021/08/30 04:48:47;;;;;;;22.88;10.50;;;20.30;91.30;;;;;;4999497;28;20022;-71
2021/08/30 04:51:13;;;;;;;25.20;9.80;;;20.20;91.30;;;;;;4996470;28;20031;-71
2021/08/30 04:53:39;;;;;;;23.42;9.55;;;20.20;91.30;;;;;;5008974;28;20034;-71
2021/08/30 04:56:04;;;;;;;23.50;10.00;;;20.20;91.40;;;;;;5009597;28;20057;-74
2021/08/30 04:58:30;;;;;;;21.58;9.32;;;20.20;91.70;;;;;;5005774;28;20397;-75
2021/08/30 05:00:56;;;;;;;16.33;9.15;;;20.20;91.50;;;;;;4998745;28;20030;-75
2021/08/30 05:03:21;;;;;;;14.23;8.95;;;20.20;91.50;;;;;;4998202;28;20478;-75
2021/08/30 05:05:47;;;;;;;17.35;9.18;;;20.20;91.50;;;;;;5001872;28;20536;-72
2021/08/30 05:08:13;;;;;;;21.45;9.05;;;20.20;91.80;;;;;;5001103;28;20026;-75
2021/08/30 05:10:38;;;;;;;15.25;8.23;;;20.20;91.50;;;;;;5002048;28;20022;-71
2021/08/30 05:13:04;;;;;;;18.40;8.95;;;20.10;91.40;;;;;;4997402;28;20035;-71
2021/08/30 05:15:30;;;;;;;19.23;9.07;;;20.10;91.40;;;;;;4999514;28;20034;-75
2021/08/30 05:17:55;;;;;;;17.90;8.02;;;20.10;91.50;;;;;;5002624;28;20026;-71
2021/08/30 05:20:21;;;;;;;17.85;9.13;;;20.10;91.40;;;;;;5009147;28;20405;-71
2021/08/30 05:22:47;;;;;;;26.40;8.63;;;20.10;91.50;;;;;;5002314;28;20030;-71
2021/08/30 05:25:13;;;;;;;19.85;8.45;;;20.00;91.50;;;;;;5014124;28;20050;-71
2021/08/30 05:27:41;;;;;;;19.52;8.82;;;20.00;91.60;;;;;;5011003;28;20485;-76
2021/08/30 05:30:07;;;;;;;16.20;8.38;;;20.00;91.60;;;;;;5006243;28;20034;-77
2021/08/30 05:32:32;;;;;;;15.55;7.78;;;20.00;91.70;;;;;;4999845;28;20036;-76
2021/08/30 05:34:58;;;;;;;15.32;9.07;;;20.00;91.80;;;;;;5009174;28;20029;-71
2021/08/30 05:37:24;;;;;;;17.25;8.40;;;20.00;91.80;;;;;;5000202;28;20113;-71
2021/08/30 05:39:50;;;;;;;17.27;8.02;;;20.00;91.80;;;;;;5008802;28;20097;-71
2021/08/30 05:42:16;;;;;;;14.93;9.43;;;20.00;91.90;;;;;;5000103;28;20506;-71
2021/08/30 05:44:42;;;;;;;13.90;7.78;;;19.90;92.00;;;;;;5001177;28;20458;-71
2021/08/30 05:47:08;;;;;;;20.73;8.57;;;20.00;92.00;;;;;;5010437;28;20052;-71
2021/08/30 05:49:33;;;;;;;15.93;8.73;;;20.00;92.10;;;;;;5011130;28;20465;-71
2021/08/30 05:51:59;;;;;;;15.23;8.52;;;20.00;92.00;;;;;;5003249;28;20116;-71
2021/08/30 05:54:28;;;;;;;18.75;8.82;;;20.00;92.10;;;;;;4999227;28;20088;-71
2021/08/30 05:56:53;;;;;;;19.65;8.52;;;20.00;92.20;;;;;;5013438;28;20044;-71
2021/08/30 05:59:22;;;;;;;14.35;7.72;;;20.00;92.20;;;;;;5007196;28;20018;-71
2021/08/30 06:01:47;;;;;;;19.45;8.38;;;20.00;92.30;;;;;;5005658;28;20030;-71
2021/08/30 06:04:13;;;;;;;18.55;9.10;;;19.90;92.20;;;;;;5003836;28;20105;-73
2021/08/30 06:06:39;;;;;;;19.95;7.78;;;20.00;92.30;;;;;;5013688;28;20531;-71
2021/08/30 06:09:04;;;;;;;13.82;7.53;;;20.00;92.30;;;;;;5013703;28;20036;-75
2021/08/30 06:11:30;;;;;;;19.00;9.20;;;20.00;92.20;;;;;;5007292;28;20113;-71
2021/08/30 06:13:56;;;;;;;15.80;7.82;;;20.00;92.20;;;;;;5008636;28;20026;-71
2021/08/30 06:16:21;;;;;;;18.05;7.95;;;20.00;92.20;;;;;;5007806;28;20030;-71
2021/08/30 06:18:47;;;;;;;18.98;8.68;;;20.00;92.20;;;;;;5013557;28;20030;-71
2021/08/30 06:21:13;;;;;;;15.60;8.48;;;20.00;92.30;;;;;;5007753;28;20084;-74
2021/08/30 06:23:38;;;;;;;15.63;7.72;;;20.10;92.30;;;;;;5012287;28;20080;-73
2021/08/30 06:26:04;;;;;;;23.67;8.32;;;20.10;92.30;;;;;;5002524;28;20058;-71
2021/08/30 06:28:30;;;;;;;13.38;7.55;;;20.10;92.40;;;;;;5009746;28;20096;-71
2021/08/30 06:30:55;;;;;;;12.43;7.43;;;20.10;92.40;;;;;;5006081;28;20117;-71
2021/08/30 06:33:21;;;;;;;19.40;8.32;;;20.10;92.40;;;;;;5011676;28;20470;-71
2021/08/30 06:35:47;;;;;;;16.63;7.25;;;20.10;92.40;;;;;;5005464;28;20069;-71
2021/08/30 06:38:14;;;;;;;15.43;8.32;;;20.10;92.30;;;;;;5008887;28;20014;-71
2021/08/30 06:40:40;;;;;;;15.85;7.40;;;20.10;92.30;;;;;;5008980;28;20038;-71
2021/08/30 06:43:06;;;;;;;13.68;7.63;;;20.20;92.40;;;;;;5000866;28;20067;-71
2021/08/30 06:45:32;;;;;;;15.02;7.30;;;20.10;92.30;;;;;;5000997;28;20117;-71
2021/08/30 06:47:59;;;;;;;16.90;6.95;;;20.20;92.30;;;;;;5014307;28;20403;-71
2021/08/30 06:50:25;;;;;;;22.23;7.15;;;20.20;92.20;;;;;;5006904;28;20037;-71
2021/08/30 06:52:51;;;;;;;10.32;6.35;;;20.20;92.20;;;;;;5011768;28;20034;-71
2021/08/30 06:55:18;;;;;;;16.80;6.95;;;20.10;92.10;;;;;;5012965;28;20048;-71
2021/08/30 06:57:44;;;;;;;13.50;7.43;;;20.10;92.10;;;;;;5013973;28;20041;-71
2021/08/30 07:00:10;;;;;;;13.00;6.78;;;20.20;92.10;;;;;;4996583;28;20434;-71
2021/08/30 07:02:36;;;;;;;18.08;7.47;;;20.20;92.10;;;;;;4997989;28;20462;-71
2021/08/30 07:05:02;;;;;;;16.35;7.53;;;20.20;92.20;;;;;;5005995;28;20027;-71
2021/08/30 07:07:28;;;;;;;14.50;7.57;;;20.20;92.20;;;;;;5001561;28;20053;-71
2021/08/30 07:09:54;;;;;;;17.08;7.93;;;20.20;92.20;;;;;;5001516;28;20022;-70
2021/08/30 07:12:20;;;;;;;14.65;6.82;;;20.20;92.20;;;;;;5007116;28;20473;-72
2021/08/30 07:14:45;;;;;;;16.38;8.68;;;20.30;92.20;;;;;;5006445;28;20030;-71
2021/08/30 07:17:11;;;;;;;20.25;7.10;;;20.30;92.20;;;;;;5006286;28;20030;-71
2021/08/30 07:19:37;;;;;;;12.73;7.13;;;20.20;92.20;;;;;;5008246;28;20037;-70
2021/08/30 07:22:04;;;;;;;12.43;6.60;;;20.30;92.20;;;;;;5002837;28;20021;-71
2021/08/30 07:24:30;;;;;;;17.33;6.53;;;20.30;92.40;;;;;;5006338;28;20049;-70
2021/08/30 07:26:56;;;;;;;12.15;6.07;;;20.30;92.10;;;;;;5000147;28;20085;-71
2021/08/30 07:29:22;;;;;;;11.68;6.05;;;20.30;92.10;;;;;;4995907;28;20030;-70
2021/08/30 07:31:48;;;;;;;12.70;6.32;;;20.30;92.10;;;;;;5002135;28;20031;-71
2021/08/30 07:34:14;;;;;;;15.68;7.95;;;20.40;92.00;;;;;;5001975;28;20026;-70
2021/08/30 07:36:39;;;;;;;12.95;5.97;;;20.40;92.10;;;;;;5005554;28;20038;-71
2021/08/30 07:39:05;;;;;;;13.35;6.25;;;20.40;92.00;;;;;;5004740;28;20033;-71
2021/08/30 07:41:35;;;;;;;14.13;6.47;;;20.30;91.90;;;;;;5009252;28;20124;-70
2021/08/30 07:44:00;;;;;;;11.75;6.28;;;20.40;92.00;;;;;;5007653;28;20030;-70
2021/08/30 07:46:26;;;;;;;14.52;6.70;;;20.40;92.00;;;;;;5001205;28;20042;-71
2021/08/30 07:48:52;;;;;;;11.30;6.30;;;20.40;92.00;;;;;;5006130;28;20125;-70
2021/08/30 07:51:19;;;;;;;20.00;6.40;;;20.40;91.80;;;;;;5008158;28;20026;-71
2021/08/30 07:53:45;;;;;;;15.40;6.93;;;20.50;91.80;;;;;;5010871;28;20045;-71
2021/08/30 07:56:11;;;;;;;14.90;5.82;;;20.40;91.80;;;;;;5006812;28;20033;-72
2021/08/30 07:58:37;;;;;;;13.55;6.22;;;20.50;91.70;;;;;;5012514;28;20049;-73
2021/08/30 08:01:03;;;;;;;14.32;6.20;;;20.50;91.70;;;;;;4995875;28;20516;-72
2021/08/30 08:03:28;;;;;;;12.57;5.50;;;20.50;91.70;;;;;;5002268;28;20371;-80
2021/08/30 08:05:54;;;;;;;15.60;5.75;;;20.50;91.60;;;;;;5011024;28;20117;-71
2021/08/30 08:08:20;;;;;;;9.20;5.35;;;20.50;91.40;;;;;;5002194;28;20034;-71
2021/08/30 08:10:45;;;;;;;11.85;5.82;;;20.60;91.50;;;;;;5006910;28;20037;-71
2021/08/30 08:13:11;;;;;;;12.60;5.78;;;20.60;91.50;;;;;;4998881;28;20375;-71
2021/08/30 08:15:38;;;;;;;13.48;4.82;;;20.60;91.40;;;;;;5011989;28;20029;-71
2021/08/30 08:18:04;;;;;;;10.77;4.95;;;20.60;91.60;;;;;;4998123;28;20040;-71
2021/08/30 08:20:31;;;;;;;8.68;5.50;;;20.60;91.30;;;;;;5003715;28;20026;-71
2021/08/30 08:22:58;;;;;;;10.55;4.93;;;20.70;91.40;;;;;;5007873;28;20022;-71
2021/08/30 08:25:24;;;;;;;11.68;5.18;;;20.70;91.30;;;;;;5001206;28;20057;-71
2021/08/30 08:27:49;;;;;;;12.13;5.75;;;20.70;91.20;;;;;;4997589;28;20042;-71
2021/08/30 08:30:15;;;;;;;10.15;5.50;;;20.80;91.10;;;;;;5009936;28;20048;-71
2021/08/30 08:32:42;;;;;;;11.77;4.90;;;20.80;91.10;;;;;;4998787;28;20493;-71
2021/08/30 08:35:10;;;;;;;7.07;4.38;;;20.80;91.00;;;;;;5005759;28;20466;-71
2021/08/30 08:37:36;;;;;;;11.20;4.97;;;20.90;90.70;;;;;;5010425;28;20092;-71
2021/08/30 08:40:07;;;;;;;11.77;4.82;;;20.90;90.70;;;;;;5002552;28;20492;-70
2021/08/30 08:42:36;;;;;;;7.22;4.72;;;20.90;90.60;;;;;;4999843;28;20042;-71
2021/08/30 08:45:05;;;;;;;10.68;4.30;;;21.00;90.40;;;;;;4999442;28;20025;-71
2021/08/30 08:47:30;;;;;;;6.40;4.15;;;21.00;90.40;;;;;;5012852;28;20428;-71
2021/08/30 08:49:56;;;;;;;6.03;3.90;;;21.00;90.00;;;;;;4998286;28;20117;-71
2021/08/30 08:52:23;;;;;;;8.05;4.60;;;21.00;90.10;;;;;;5012057;28;20080;-71
2021/08/30 08:54:49;;;;;;;7.82;4.32;;;21.10;89.70;;;;;;5009546;28;20037;-70
2021/08/30 08:57:15;;;;;;;6.68;4.20;;;21.10;89.90;;;;;;5001602;28;20042;-71
2021/08/30 09:00:03;;;;;;;8.82;4.90;;;21.10;89.70;;;;;;5004058;28;20101;-71
2021/08/30 09:02:30;;;;;;;6.72;3.50;;;21.10;89.80;;;;;;5011161;28;20037;-71
2021/08/30 09:04:58;;;;;;;9.38;4.40;;;21.10;89.30;;;;;;5010357;28;20121;-71
2021/08/30 09:07:44;;;;;;;6.88;3.85;;;21.10;90.10;;;;;;5007361;28;20079;-71
2021/08/30 09:10:16;;;;;;;5.82;3.17;;;21.20;90.00;;;;;;5003737;28;20034;-71
2021/08/30 09:12:42;;;;;;;9.40;4.70;;;21.20;90.00;;;;;;5000920;28;20109;-71
2021/08/30 09:15:13;;;;;;;6.97;3.35;;;21.20;89.90;;;;;;5001499;28;20050;-71
2021/08/30 09:17:47;;;;;;;9.15;4.78;;;21.30;89.80;;;;;;5001350;28;20038;-71
2021/08/30 09:20:16;;;;;;;8.85;3.83;;;21.30;90.00;;;;;;4998675;28;20196;-71
2021/08/30 09:22:42;;;;;;;8.60;4.43;;;21.30;89.90;;;;;;5011298;28;20065;-71
2021/08/30 09:25:10;;;;;;;6.22;3.90;;;21.30;89.20;;;;;;5014025;28;20046;-70
2021/08/30 09:27:39;;;;;;;11.90;4.72;;;21.30;88.70;;;;;;5013199;28;20052;-71
2021/08/30 09:30:07;;;;;;;12.63;4.47;;;21.30;88.30;;;;;;5001597;28;20054;-71
2021/08/30 09:32:36;;;;;;;7.43;4.68;;;21.40;88.90;;;;;;5007075;28;20038;-71
2021/08/30 09:35:04;;;;;;;8.07;4.10;;;21.30;88.60;;;;;;5012179;28;20026;-71
2021/08/30 09:37:36;;;;;;;9.20;3.80;;;21.30;88.80;;;;;;5007370;28;20042;-72
2021/08/30 09:40:05;;;;;;;8.95;4.22;;;21.30;88.90;;;;;;5005450;28;20022;-71
2021/08/30 09:42:32;;;;;;;7.15;4.15;;;21.40;89.00;;;;;;5010030;28;20473;-71
2021/08/30 09:45:20;;;;;;;10.45;4.55;;;21.40;88.80;;;;;;5009382;28;20049;-71
2021/08/30 09:47:55;;;;;;;8.68;4.55;;;21.40;89.20;;;;;;5011011;28;20371;-71
2021/08/30 09:50:27;;;;;;;8.63;4.43;;;21.40;88.90;;;;;;5016171;28;20042;-71
2021/08/30 09:52:53;;;;;;;8.48;4.70;;;21.40;88.90;;;;;;5008841;28;20038;-72
2021/08/30 09:55:18;;;;;;;14.40;4.65;;;21.40;88.40;;;;;;5014264;28;20081;-72
2021/08/30 09:57:49;;;;;;;10.05;3.90;;;21.50;88.40;;;;;;5007893;28;20034;-72
2021/08/30 10:00:16;;;;;;;8.90;5.00;;;21.50;87.80;;;;;;5009779;28;20406;-73
2021/08/30 10:02:47;;;;;;;7.72;3.92;;;21.50;87.40;;;;;;5004812;28;20033;-71
2021/08/30 10:05:15;;;;;;;9.27;4.97;;;21.50;87.40;;;;;;5013262;28;20022;-71
2021/08/30 10:07:42;;;;;;;7.72;4.32;;;21.50;87.50;;;;;;5012478;28;20072;-71
2021/08/30 10:10:09;;;;;;;8.13;4.30;;;21.50;86.80;;;;;;5008863;28;20030;-71
2021/08/30 10:12:35;;;;;;;8.50;3.97;;;21.50;87.00;;;;;;5012852;28;20436;-72
2021/08/30 10:15:01;;;;;;;10.90;4.38;;;21.60;86.90;;;;;;5010760;28;20026;-71
2021/08/30 10:17:27;;;;;;;6.50;3.40;;;21.60;87.00;;;;;;5013295;28;20052;-71
2021/08/30 10:19:58;;;;;;;5.40;3.50;;;21.70;87.20;;;;;;5010989;28;20029;-71
2021/08/30 10:22:24;;;;;;;6.35;3.70;;;21.60;85.90;;;;;;5000530;28;20030;-71
2021/08/30 10:24:51;;;;;;;5.55;3.08;;;21.60;84.90;;;;;;5007572;28;20506;-70
2021/08/30 10:27:32;;;;;;;6.78;4.00;;;21.60;85.70;;;;;;5009265;28;20041;-71
2021/08/30 10:30:11;;;;;;;5.45;3.38;;;21.70;85.20;;;;;;5001361;28;20461;-71
2021/08/30 10:32:41;;;;;;;5.20;3.10;;;21.70;86.00;;;;;;5006471;28;20026;-71
2021/08/30 10:35:19;;;;;;;4.63;3.03;;;21.70;86.40;;;;;;5006599;28;20488;-71
2021/08/30 10:37:48;;;;;;;8.73;4.20;;;21.70;86.20;;;;;;5009987;28;20184;-71
2021/08/30 10:40:16;;;;;;;6.28;3.40;;;21.80;86.10;;;;;;5004610;28;20030;-71
2021/08/30 10:42:42;;;;;;;5.60;3.40;;;21.80;86.10;;;;;;5008266;28;20024;-71
2021/08/30 10:45:09;;;;;;;7.50;4.07;;;21.80;86.20;;;;;;5006981;28;20397;-71
2021/08/30 10:47:37;;;;;;;7.40;3.97;;;21.80;85.10;;;;;;5007393;28;20404;-71
2021/08/30 10:50:18;;;;;;;6.32;3.70;;;21.80;84.90;;;;;;5006661;28;20047;-71
2021/08/30 10:52:43;;;;;;;8.27;4.20;;;21.80;85.00;;;;;;5008653;28;20033;-71
2021/08/30 10:55:17;;;;;;;4.03;2.58;;;21.90;84.70;;;;;;5009510;28;20032;-71
2021/08/30 10:57:52;;;;;;;6.72;3.60;;;21.90;84.90;;;;;;5013495;28;20038;-71
2021/08/30 11:00:31;;;;;;;8.05;3.92;;;22.00;84.70;;;;;;4998229;28;20109;-71
2021/08/30 11:02:56;;;;;;;6.95;3.80;;;22.00;85.10;;;;;;4995931;28;20504;-71
2021/08/30 11:05:27;;;;;;;4.85;3.58;;;22.00;84.10;;;;;;5002817;28;20030;-71
2021/08/30 11:07:53;;;;;;;4.80;3.22;;;22.00;84.20;;;;;;5001060;28;20088;-71
2021/08/30 11:10:24;;;;;;;5.75;3.60;;;22.10;84.40;;;;;;5006602;28;20038;-72
2021/08/30 11:12:53;;;;;;;7.70;4.30;;;22.00;83.40;;;;;;5008542;28;20161;-71
2021/08/30 11:15:19;;;;;;;6.25;3.92;;;22.10;84.60;;;;;;4997654;28;20508;-71
2021/08/30 11:17:45;;;;;;;5.80;4.00;;;22.20;83.70;;;;;;4998606;28;20027;-71
2021/08/30 11:20:15;;;;;;;5.47;3.47;;;22.20;83.80;;;;;;4994812;28;20112;-71
2021/08/30 11:22:41;;;;;;;5.82;3.85;;;22.30;83.80;;;;;;5005372;28;20035;-71
2021/08/30 11:25:07;;;;;;;4.57;3.60;;;22.30;84.20;;;;;;5000221;28;20045;-71
2021/08/30 11:27:33;;;;;;;7.63;3.95;;;22.40;84.10;;;;;;4996448;28;20034;-71
2021/08/30 11:30:12;;;;;;;5.82;3.63;;;22.30;83.80;;;;;;4998906;28;20057;-70
2021/08/30 11:32:40;;;;;;;11.18;4.00;;;22.40;83.80;;;;;;5001934;28;20084;-71
2021/08/30 11:35:08;;;;;;;6.88;3.90;;;22.40;83.90;;;;;;4998171;28;20385;-71
2021/08/30 11:37:35;;;;;;;6.35;3.60;;;22.50;83.80;;;;;;5002447;28;20044;-71
2021/08/30 11:40:05;;;;;;;7.55;4.47;;;22.40;83.60;;;;;;4995552;28;20030;-71
2021/08/30 11:42:34;;;;;;;9.30;4.43;;;22.40;83.30;;;;;;4994880;28;20390;-71
2021/08/30 11:45:01;;;;;;;8.55;4.75;;;22.40;83.60;;;;;;5005920;28;20109;-71
2021/08/30 11:47:30;;;;;;;8.00;4.68;;;22.50;83.60;;;;;;5005281;28;20042;-71
2021/08/30 11:50:01;;;;;;;10.25;4.82;;;22.50;83.80;;;;;;5000993;28;20026;-71
2021/08/30 11:52:30;;;;;;;12.98;4.30;;;22.50;83.60;;;;;;4996774;28;20056;-71
2021/08/30 11:55:08;;;;;;;8.55;4.47;;;22.50;83.60;;;;;;4999324;28;20022;-71
2021/08/30 11:57:49;;;;;;;9.40;4.75;;;22.50;84.00;;;;;;5000419;28;20489;-71
2021/08/30 12:00:23;;;;;;;8.38;4.30;;;22.50;84.30;;;;;;5001358;28;20912;-71
2021/08/30 12:03:01;;;;;;;6.53;4.07;;;22.50;84.10;;;;;;5004837;28;20042;-70
2021/08/30 12:05:29;;;;;;;9.55;4.68;;;22.50;84.00;;;;;;5007841;28;20386;-71
2021/08/30 12:07:56;;;;;;;8.70;4.28;;;22.50;83.60;;;;;;5011357;28;20053;-70
2021/08/30 12:10:23;;;;;;;9.98;4.85;;;22.50;84.30;;;;;;5009453;28;20048;-71
2021/08/30 12:12:57;;;;;;;9.32;4.20;;;22.60;84.90;;;;;;5005983;28;20041;-70
2021/08/30 12:15:27;;;;;;;9.27;4.97;;;22.60;84.60;;;;;;5009787;28;20034;-75
2021/08/30 12:17:56;;;;;;;9.07;4.68;;;22.60;84.30;;;;;;5009409;28;20029;-71
2021/08/30 12:20:32;;;;;;;9.45;4.63;;;22.60;83.70;;;;;;5006992;28;20044;-70
2021/08/30 12:23:01;;;;;;;9.00;5.00;;;22.60;84.00;;;;;;5009998;28;20063;-71
2021/08/30 12:25:32;;;;;;;9.68;4.63;;;22.70;84.10;;;;;;5009797;28;20085;-71
2021/08/30 12:27:59;;;;;;;12.23;4.72;;;22.70;84.30;;;;;;5009389;28;20469;-71
2021/08/30 12:30:26;;;;;;;8.80;4.90;;;22.70;83.90;;;;;;5010336;28;20025;-71
2021/08/30 12:33:01;;;;;;;10.27;4.60;;;22.70;84.20;;;;;;5010357;28;20385;-71
2021/08/30 12:35:33;;;;;;;11.88;5.07;;;22.70;83.80;;;;;;5009522;28;20038;-73
2021/08/30 12:38:01;;;;;;;8.48;4.15;;;22.70;83.30;;;;;;5003664;28;20080;-72
2021/08/30 12:40:29;;;;;;;12.50;4.90;;;22.70;84.00;;;;;;5010074;28;20037;-70
2021/08/30 12:42:55;;;;;;;6.72;4.00;;;22.80;83.80;;;;;;5010772;28;20651;-71
2021/08/30 12:45:22;;;;;;;11.20;4.90;;;22.80;83.40;;;;;;5002536;28;20080;-70
2021/08/30 12:47:48;;;;;;;14.82;4.60;;;22.90;83.60;;;;;;4999630;28;20042;-70